createdAt,value
2018-07-20T00:01:15.991Z,18.85
2018-07-20T00:03:44.071Z,18.79
2018-07-20T00:06:12.159Z,18.74
2018-07-20T00:08:40.617Z,18.70
2018-07-20T00:11:08.913Z,18.65
2018-07-20T00:13:37.460Z,18.58
2018-07-20T00:16:05.988Z,18.54
2018-07-20T00:18:34.551Z,18.49
2018-07-20T00:21:03.022Z,18.44
2018-07-20T00:23:31.687Z,18.37
2018-07-20T00:26:00.877Z,18.30
2018-07-20T00:28:29.728Z,18.25
2018-07-20T00:30:58.535Z,18.20
2018-07-20T00:33:27.103Z,18.18
2018-07-20T00:35:55.516Z,18.11
2018-07-20T00:38:23.587Z,18.02
2018-07-20T00:40:51.672Z,17.95
2018-07-20T00:43:19.726Z,17.92
2018-07-20T00:45:47.841Z,17.87
2018-07-20T00:48:15.908Z,17.81
2018-07-20T00:50:43.971Z,17.75
2018-07-20T00:53:12.050Z,17.64
2018-07-20T00:55:40.232Z,17.57
2018-07-20T00:58:08.745Z,17.53
2018-07-20T01:00:36.864Z,17.49
2018-07-20T01:03:04.979Z,17.46
2018-07-20T01:05:33.044Z,17.44
2018-07-20T01:08:01.071Z,17.45
2018-07-20T01:10:29.143Z,17.46
2018-07-20T01:12:57.206Z,17.45
2018-07-20T01:15:25.259Z,17.45
2018-07-20T01:17:53.361Z,17.45
2018-07-20T01:20:21.411Z,17.43
2018-07-20T01:22:49.555Z,17.40
2018-07-20T01:25:17.635Z,17.36
2018-07-20T01:27:45.697Z,17.32
2018-07-20T01:30:13.767Z,17.27
2018-07-20T01:32:41.876Z,17.23
2018-07-20T01:35:10.592Z,17.23
2018-07-20T01:37:38.792Z,17.23
2018-07-20T01:40:07.518Z,17.24
2018-07-20T01:42:36.030Z,17.22
2018-07-20T01:45:04.520Z,17.19
2018-07-20T01:47:33.014Z,17.13
2018-07-20T01:50:01.783Z,17.10
2018-07-20T01:52:30.414Z,17.07
2018-07-20T01:54:58.613Z,17.04
2018-07-20T01:57:26.652Z,16.99
2018-07-20T01:59:54.725Z,16.95
2018-07-20T02:02:22.814Z,16.96
2018-07-20T02:04:50.814Z,16.99
2018-07-20T02:07:18.903Z,17.00
2018-07-20T02:09:46.976Z,16.98
2018-07-20T02:12:15.084Z,16.96
2018-07-20T02:14:43.251Z,16.94
2018-07-20T02:17:11.319Z,16.96
2018-07-20T02:19:39.495Z,16.97
2018-07-20T02:22:07.791Z,16.99
2018-07-20T02:24:36.198Z,17.00
2018-07-20T02:27:04.559Z,16.97
2018-07-20T02:29:33.059Z,16.93
2018-07-20T02:32:01.624Z,16.88
2018-07-20T02:34:30.536Z,16.81
2018-07-20T02:36:59.421Z,16.73
2018-07-20T02:39:28.539Z,16.71
2018-07-20T02:41:57.364Z,16.70
2018-07-20T02:44:25.667Z,16.70
2018-07-20T02:46:53.869Z,16.71
2018-07-20T02:49:22.124Z,16.68
2018-07-20T02:51:50.218Z,16.60
2018-07-20T02:54:18.485Z,16.56
2018-07-20T02:56:46.620Z,16.55
2018-07-20T02:59:14.691Z,16.54
2018-07-20T03:01:42.765Z,16.51
2018-07-20T03:04:10.839Z,16.49
2018-07-20T03:06:38.911Z,16.50
2018-07-20T03:09:09.444Z,16.47
2018-07-20T03:11:37.492Z,16.47
2018-07-20T03:14:05.688Z,16.45
2018-07-20T03:16:33.759Z,16.42
2018-07-20T03:19:01.815Z,16.38
2018-07-20T03:21:29.867Z,16.34
2018-07-20T03:23:58.056Z,16.33
2018-07-20T03:26:26.153Z,16.29
2018-07-20T03:28:54.221Z,16.27
2018-07-20T03:31:22.287Z,16.18
2018-07-20T03:33:50.387Z,16.14
2018-07-20T03:36:18.719Z,16.15
2018-07-20T03:38:46.819Z,16.17
2018-07-20T03:41:14.875Z,16.18
2018-07-20T03:43:42.939Z,16.21
2018-07-20T03:46:10.984Z,16.22
2018-07-20T03:48:39.036Z,16.25
2018-07-20T03:51:07.135Z,16.25
2018-07-20T03:53:35.291Z,16.25
2018-07-20T03:56:03.440Z,16.27
2018-07-20T03:58:31.526Z,16.30
2018-07-20T04:00:59.655Z,16.28
2018-07-20T04:03:27.688Z,16.24
2018-07-20T04:05:55.766Z,16.29
2018-07-20T04:08:23.888Z,16.35
2018-07-20T04:10:51.987Z,16.38
2018-07-20T04:13:21.280Z,16.41
2018-07-20T04:15:49.427Z,16.46
2018-07-20T04:18:17.495Z,16.49
2018-07-20T04:20:45.569Z,16.55
2018-07-20T04:23:13.631Z,16.59
2018-07-20T04:25:41.997Z,16.63
2018-07-20T04:28:10.043Z,16.66
2018-07-20T04:30:38.093Z,16.62
2018-07-20T04:33:06.268Z,16.63
2018-07-20T04:35:34.339Z,16.69
2018-07-20T04:38:02.471Z,16.79
2018-07-20T04:40:30.536Z,16.86
2018-07-20T04:42:58.635Z,16.95
2018-07-20T04:45:26.764Z,17.07
2018-07-20T04:47:56.355Z,17.19
2018-07-20T04:50:24.519Z,17.29
2018-07-20T04:52:52.649Z,17.41
2018-07-20T04:55:20.764Z,17.54
2018-07-20T04:57:48.847Z,17.66
2018-07-20T05:00:16.874Z,17.85
2018-07-20T05:02:45.024Z,18.08
2018-07-20T05:05:13.088Z,18.16
2018-07-20T05:07:41.147Z,18.22
2018-07-20T05:10:09.174Z,18.16
2018-07-20T05:12:37.264Z,18.17
2018-07-20T05:15:05.335Z,18.30
2018-07-20T05:17:33.408Z,18.41
2018-07-20T05:20:01.541Z,18.49
2018-07-20T05:22:29.615Z,18.53
2018-07-20T05:24:57.815Z,18.57
2018-07-20T05:27:25.997Z,18.62
2018-07-20T05:29:55.580Z,18.21
2018-07-20T05:32:23.783Z,18.73
2018-07-20T05:34:51.856Z,18.84
2018-07-20T05:37:20.523Z,18.99
2018-07-20T05:39:48.944Z,19.10
2018-07-20T05:42:17.015Z,19.20
2018-07-20T05:44:45.089Z,19.23
2018-07-20T05:47:13.159Z,19.31
2018-07-20T05:49:41.236Z,19.72
2018-07-20T05:52:09.292Z,20.02
2018-07-20T05:54:37.348Z,20.13
2018-07-20T05:57:05.492Z,20.28
2018-07-20T05:59:33.554Z,20.36
2018-07-20T06:02:01.740Z,20.44
2018-07-20T06:04:29.789Z,20.47
2018-07-20T06:06:57.880Z,20.71
2018-07-20T06:09:25.959Z,20.93
2018-07-20T06:11:53.987Z,21.08
2018-07-20T06:14:22.192Z,21.21
2018-07-20T06:16:50.268Z,21.37
2018-07-20T06:19:18.322Z,21.55
2018-07-20T06:21:46.421Z,21.77
2018-07-20T06:24:14.481Z,22.21
2018-07-20T06:26:42.835Z,21.96
2018-07-20T06:29:10.934Z,21.59
2018-07-20T06:31:38.989Z,21.63
2018-07-20T06:34:07.152Z,21.77
2018-07-20T06:36:35.244Z,21.92
2018-07-20T06:39:03.464Z,22.17
2018-07-20T06:41:31.578Z,22.19
2018-07-20T06:43:59.644Z,22.35
2018-07-20T06:46:27.714Z,22.39
2018-07-20T06:48:55.918Z,22.46
2018-07-20T06:51:23.990Z,22.66
2018-07-20T06:53:52.163Z,22.76
2018-07-20T06:56:20.244Z,22.92
2018-07-20T06:58:48.407Z,23.32
2018-07-20T07:01:17.758Z,23.56
2018-07-20T07:03:45.837Z,24.13
2018-07-20T07:06:14.050Z,24.91
2018-07-20T07:08:42.135Z,24.66
2018-07-20T07:11:10.198Z,24.70
2018-07-20T07:13:38.292Z,24.63
2018-07-20T07:16:06.464Z,24.50
2018-07-20T07:18:34.572Z,24.50
2018-07-20T07:21:02.654Z,24.53
2018-07-20T07:23:30.775Z,24.47
2018-07-20T07:25:58.969Z,24.52
2018-07-20T07:28:27.021Z,24.82
2018-07-20T07:30:55.083Z,24.84
2018-07-20T07:33:23.358Z,24.85
2018-07-20T07:35:51.742Z,24.91
2018-07-20T07:38:19.758Z,24.91
2018-07-20T07:40:47.901Z,25.39
2018-07-20T07:43:16.119Z,26.20
2018-07-20T07:45:44.225Z,26.62
2018-07-20T07:48:12.320Z,26.67
2018-07-20T07:50:40.450Z,26.83
2018-07-20T07:53:08.528Z,27.37
2018-07-20T07:55:36.625Z,27.85
2018-07-20T07:58:04.706Z,28.30
2018-07-20T08:00:32.795Z,28.93
2018-07-20T08:03:00.895Z,29.43
2018-07-20T08:05:29.019Z,29.77
2018-07-20T08:07:57.297Z,30.14
2018-07-20T08:10:25.463Z,30.52
2018-07-20T08:12:53.533Z,30.81
2018-07-20T08:15:21.624Z,30.46
2018-07-20T08:17:49.683Z,30.74
2018-07-20T08:20:18.398Z,30.96
2018-07-20T08:22:46.484Z,31.26
2018-07-20T08:25:14.571Z,31.02
2018-07-20T08:27:42.676Z,31.31
2018-07-20T08:30:10.739Z,31.57
2018-07-20T08:32:38.807Z,31.75
2018-07-20T08:35:06.871Z,31.51
2018-07-20T08:37:34.952Z,31.70
2018-07-20T08:40:03.229Z,31.67
2018-07-20T08:42:31.439Z,31.11
2018-07-20T08:44:59.656Z,31.19
2018-07-20T08:47:27.724Z,31.40
2018-07-20T08:49:55.783Z,31.30
2018-07-20T08:52:23.844Z,31.50
2018-07-20T08:54:51.932Z,31.61
2018-07-20T08:57:20.040Z,31.79
2018-07-20T08:59:48.096Z,32.02
2018-07-20T09:02:17.029Z,31.78
2018-07-20T09:04:45.102Z,31.53
2018-07-20T09:07:13.183Z,31.38
2018-07-20T09:09:41.270Z,31.55
2018-07-20T09:12:09.404Z,31.72
2018-07-20T09:14:37.456Z,31.79
2018-07-20T09:17:05.565Z,31.79
2018-07-20T09:19:33.620Z,31.95
2018-07-20T09:22:02.301Z,32.23
2018-07-20T09:24:30.356Z,32.45
2018-07-20T09:26:58.463Z,32.67
2018-07-20T09:29:26.642Z,32.79
2018-07-20T09:31:54.746Z,32.17
2018-07-20T09:34:22.807Z,32.75
2018-07-20T09:36:50.923Z,32.80
2018-07-20T09:39:19.104Z,33.04
2018-07-20T09:41:47.191Z,33.34
2018-07-20T09:44:15.297Z,33.28
2018-07-20T09:46:43.335Z,33.20
2018-07-20T09:49:11.538Z,33.58
2018-07-20T09:51:39.595Z,33.90
2018-07-20T09:54:07.637Z,34.31
2018-07-20T09:56:35.800Z,34.59
2018-07-20T09:59:03.902Z,34.88
2018-07-20T10:01:31.990Z,34.57
2018-07-20T10:04:00.135Z,34.46
2018-07-20T10:06:28.195Z,34.64
2018-07-20T10:08:56.285Z,34.51
2018-07-20T10:11:24.375Z,34.25
2018-07-20T10:13:53.350Z,33.87
2018-07-20T10:16:22.353Z,33.34
2018-07-20T10:18:50.409Z,32.77
2018-07-20T10:21:18.537Z,32.12
2018-07-20T10:23:46.595Z,31.70
2018-07-20T10:26:14.727Z,31.52
2018-07-20T10:28:42.801Z,31.43
2018-07-20T10:31:10.966Z,31.31
2018-07-20T10:33:39.094Z,31.14
2018-07-20T10:36:07.258Z,30.89
2018-07-20T10:38:35.669Z,30.93
2018-07-20T10:41:03.999Z,30.78
2018-07-20T10:43:32.225Z,30.64
2018-07-20T10:46:00.390Z,30.55
2018-07-20T10:48:28.462Z,30.35
2018-07-20T10:50:56.653Z,30.37
2018-07-20T10:53:24.714Z,30.33
2018-07-20T10:55:52.780Z,30.33
2018-07-20T10:58:21.064Z,30.42
2018-07-20T11:00:49.308Z,30.38
2018-07-20T11:03:17.506Z,30.41
2018-07-20T11:05:45.573Z,30.46
2018-07-20T11:08:13.664Z,30.39
2018-07-20T11:10:41.749Z,30.32
2018-07-20T11:13:09.864Z,30.33
2018-07-20T11:15:37.957Z,30.41
2018-07-20T11:18:06.025Z,30.44
2018-07-20T11:20:34.077Z,30.01
2018-07-20T11:23:02.316Z,30.03
2018-07-20T11:25:30.529Z,30.27
2018-07-20T11:27:58.670Z,30.43
2018-07-20T11:30:26.736Z,30.52
2018-07-20T11:32:54.773Z,30.53
2018-07-20T11:35:22.903Z,30.67
2018-07-20T11:37:50.958Z,30.81
2018-07-20T11:40:19.048Z,30.83
2018-07-20T11:42:47.093Z,30.98
2018-07-20T11:45:15.183Z,31.09
2018-07-20T11:47:43.239Z,31.16
2018-07-20T11:50:11.380Z,31.30
2018-07-20T11:52:39.455Z,31.47
2018-07-20T11:55:07.519Z,31.55
2018-07-20T11:57:35.628Z,31.72
2018-07-20T12:00:03.865Z,31.86
2018-07-20T12:02:32.059Z,31.92
2018-07-20T12:05:00.107Z,31.67
2018-07-20T12:07:28.192Z,31.84
2018-07-20T12:09:56.293Z,31.86
2018-07-20T12:12:24.414Z,31.91
2018-07-20T12:14:52.921Z,31.93
2018-07-20T12:17:21.078Z,31.87
2018-07-20T12:19:49.164Z,31.74
2018-07-20T12:22:17.336Z,31.72
2018-07-20T12:24:45.479Z,31.68
2018-07-20T12:27:13.606Z,31.53
2018-07-20T12:29:41.724Z,31.48
2018-07-20T12:32:09.824Z,31.54
2018-07-20T12:34:37.910Z,31.56
2018-07-20T12:37:06.140Z,31.62
2018-07-20T12:39:34.215Z,31.60
2018-07-20T12:42:03.097Z,31.74
2018-07-20T12:44:31.152Z,31.77
2018-07-20T12:46:59.209Z,31.83
2018-07-20T12:49:27.267Z,31.86
2018-07-20T12:51:55.338Z,31.86
2018-07-20T12:54:23.514Z,31.90
2018-07-20T12:56:51.586Z,31.89
2018-07-20T12:59:20.038Z,31.95
2018-07-20T13:01:48.099Z,31.86
2018-07-20T13:04:16.246Z,31.89
2018-07-20T13:06:44.360Z,31.82
2018-07-20T13:09:13.247Z,31.92
2018-07-20T13:11:41.886Z,31.98
2018-07-20T13:14:10.786Z,32.08
2018-07-20T13:16:38.843Z,32.20
2018-07-20T13:19:06.965Z,32.24
2018-07-20T13:21:35.065Z,32.25
2018-07-20T13:24:03.125Z,32.29
2018-07-20T13:26:31.240Z,32.16
2018-07-20T13:28:59.551Z,31.99
2018-07-20T13:31:27.814Z,31.95
2018-07-20T13:33:55.864Z,31.84
2018-07-20T13:36:23.954Z,31.92
2018-07-20T13:38:52.034Z,31.97
2018-07-20T13:41:20.211Z,32.08
2018-07-20T13:43:48.292Z,32.18
2018-07-20T13:46:16.406Z,32.35
2018-07-20T13:48:44.482Z,32.46
2018-07-20T13:51:12.528Z,32.53
2018-07-20T13:53:40.631Z,32.58
2018-07-20T13:56:08.712Z,32.61
2018-07-20T13:58:36.932Z,32.58
2018-07-20T14:01:05.012Z,32.57
2018-07-20T14:03:33.072Z,32.48
2018-07-20T14:06:01.227Z,32.42
2018-07-20T14:08:29.281Z,32.43
2018-07-20T14:10:57.307Z,32.46
2018-07-20T14:13:25.522Z,32.43
2018-07-20T14:15:53.606Z,32.42
2018-07-20T14:18:21.692Z,32.43
2018-07-20T14:20:49.743Z,32.37
2018-07-20T14:23:17.815Z,32.19
2018-07-20T14:25:45.868Z,32.00
2018-07-20T14:28:13.928Z,31.95
2018-07-20T14:30:42.076Z,31.88
2018-07-20T14:33:10.523Z,31.96
2018-07-20T14:35:38.607Z,31.94
2018-07-20T14:38:06.773Z,31.98
2018-07-20T14:40:34.825Z,32.08
2018-07-20T14:43:02.955Z,32.09
2018-07-20T14:45:31.344Z,32.10
2018-07-20T14:47:59.430Z,32.06
2018-07-20T14:50:27.491Z,32.08
2018-07-20T14:52:55.564Z,32.05
2018-07-20T14:55:23.627Z,32.02
2018-07-20T14:57:51.715Z,32.00
2018-07-20T15:00:19.823Z,32.04
2018-07-20T15:02:47.906Z,32.08
2018-07-20T15:05:16.322Z,32.11
2018-07-20T15:07:44.418Z,32.18
2018-07-20T15:10:12.616Z,32.16
2018-07-20T15:12:40.697Z,32.13
2018-07-20T15:15:09.164Z,32.13
2018-07-20T15:17:37.626Z,32.16
2018-07-20T15:20:06.379Z,32.11
2018-07-20T15:22:34.651Z,32.10
2018-07-20T15:25:02.723Z,31.86
2018-07-20T15:27:30.791Z,31.40
2018-07-20T15:29:58.942Z,31.51
2018-07-20T15:32:27.532Z,31.58
2018-07-20T15:34:55.587Z,31.65
2018-07-20T15:37:23.671Z,31.67
2018-07-20T15:39:51.747Z,31.70
2018-07-20T15:42:19.831Z,31.73
2018-07-20T15:44:48.845Z,31.73
2018-07-20T15:47:16.949Z,31.76
2018-07-20T15:49:44.911Z,31.76
2018-07-20T15:54:41.019Z,31.74
2018-07-20T15:57:09.116Z,31.74
2018-07-20T15:59:37.191Z,31.78
2018-07-20T16:02:05.531Z,31.74
2018-07-20T16:04:33.571Z,31.79
2018-07-20T16:07:01.612Z,31.82
2018-07-20T16:09:29.675Z,31.82
2018-07-20T16:11:57.735Z,31.86
2018-07-20T16:14:25.812Z,31.93
2018-07-20T16:16:54.004Z,32.01
2018-07-20T16:19:22.035Z,32.03
2018-07-20T16:21:50.139Z,32.02
2018-07-20T16:24:18.251Z,32.04
2018-07-20T16:26:46.334Z,32.06
2018-07-20T16:29:14.671Z,31.97
2018-07-20T16:31:42.727Z,31.79
2018-07-20T16:34:10.792Z,31.43
2018-07-20T16:36:38.948Z,31.50
2018-07-20T16:39:08.835Z,31.42
2018-07-20T16:41:37.024Z,31.24
2018-07-20T16:44:05.101Z,30.77
2018-07-20T16:46:33.153Z,30.76
2018-07-20T16:49:01.246Z,30.83
2018-07-20T16:51:29.296Z,30.73
2018-07-20T16:53:57.381Z,30.73
2018-07-20T16:56:25.440Z,30.62
2018-07-20T16:58:53.514Z,30.59
2018-07-20T17:01:21.560Z,30.55
2018-07-20T17:03:49.615Z,30.55
2018-07-20T17:06:17.704Z,30.56
2018-07-20T17:08:45.831Z,30.62
2018-07-20T17:11:13.926Z,30.63
2018-07-20T17:13:42.098Z,30.37
2018-07-20T17:16:10.123Z,30.32
2018-07-20T17:18:38.215Z,30.32
2018-07-20T17:21:06.289Z,30.50
2018-07-20T17:23:34.320Z,30.49
2018-07-20T17:26:02.911Z,30.48
2018-07-20T17:28:31.435Z,30.39
2018-07-20T17:31:00.056Z,30.45
2018-07-20T17:33:29.387Z,30.47
2018-07-20T17:35:58.196Z,30.37
2018-07-20T17:38:26.621Z,30.33
2018-07-20T17:40:54.773Z,30.31
2018-07-20T17:43:22.836Z,30.34
2018-07-20T17:45:50.911Z,30.30
2018-07-20T17:48:18.964Z,30.15
2018-07-20T17:50:46.991Z,30.07
2018-07-20T17:53:15.067Z,30.05
2018-07-20T17:55:43.149Z,30.01
2018-07-20T17:58:11.227Z,29.87
2018-07-20T18:00:39.381Z,29.78
2018-07-20T18:03:07.527Z,29.66
2018-07-20T18:05:35.741Z,29.58
2018-07-20T18:08:03.831Z,29.50
2018-07-20T18:10:31.956Z,29.43
2018-07-20T18:13:00.280Z,29.39
2018-07-20T18:15:28.395Z,29.31
2018-07-20T18:17:56.529Z,29.24
2018-07-20T18:20:24.595Z,29.12
2018-07-20T18:22:52.774Z,28.96
2018-07-20T18:25:20.875Z,28.89
2018-07-20T18:27:48.945Z,28.81
2018-07-20T18:30:16.979Z,28.73
2018-07-20T18:32:45.181Z,28.65
2018-07-20T18:35:13.219Z,28.60
2018-07-20T18:37:41.316Z,28.49
2018-07-20T18:40:09.610Z,28.44
2018-07-20T18:42:38.211Z,28.36
2018-07-20T18:45:07.380Z,28.28
2018-07-20T18:47:35.465Z,28.15
2018-07-20T18:50:05.127Z,28.08
2018-07-20T18:52:33.155Z,28.00
2018-07-20T18:55:02.799Z,27.92
2018-07-20T18:57:32.067Z,27.84
2018-07-20T19:00:01.875Z,27.76
2018-07-20T19:02:29.975Z,27.68
2018-07-20T19:04:58.183Z,27.60
2018-07-20T19:07:26.675Z,27.53
2018-07-20T19:09:54.709Z,27.47
2018-07-20T19:12:22.759Z,27.39
2018-07-20T19:14:50.823Z,27.28
2018-07-20T19:17:18.884Z,27.20
2018-07-20T19:19:46.931Z,27.12
2018-07-20T19:22:14.978Z,27.06
2018-07-20T19:24:43.036Z,27.00
2018-07-20T19:27:11.149Z,26.93
2018-07-20T19:29:39.203Z,26.88
2018-07-20T19:32:07.711Z,26.83
2018-07-20T19:34:35.823Z,26.76
2018-07-20T19:37:03.886Z,26.69
2018-07-20T19:39:31.936Z,26.61
2018-07-20T19:42:00.029Z,26.54
2018-07-20T19:44:28.150Z,26.48
2018-07-20T19:46:57.643Z,26.39
2018-07-20T19:49:27.787Z,26.33
2018-07-20T19:51:57.135Z,26.27
2018-07-20T19:54:25.581Z,26.23
2018-07-20T19:56:54.519Z,26.18
2018-07-20T19:59:22.616Z,26.15
2018-07-20T20:01:50.925Z,26.10
2018-07-20T20:04:19.092Z,26.05
2018-07-20T20:06:47.125Z,26.01
2018-07-20T20:09:15.173Z,26.00
2018-07-20T20:11:43.479Z,25.96
2018-07-20T20:14:11.533Z,25.96
2018-07-20T20:16:39.742Z,25.93
2018-07-20T20:19:07.794Z,25.90
2018-07-20T20:21:36.270Z,25.90
2018-07-20T20:24:05.074Z,25.89
2018-07-20T20:26:33.511Z,25.87
2018-07-20T20:29:02.591Z,25.86
2018-07-20T20:31:30.813Z,25.84
2018-07-20T20:33:58.899Z,25.83
2018-07-20T20:36:27.053Z,25.82
2018-07-20T20:38:55.289Z,25.79
2018-07-20T20:41:23.436Z,25.80
2018-07-20T20:43:51.508Z,25.76
2018-07-20T20:46:19.589Z,25.70
2018-07-20T20:48:47.680Z,25.62
2018-07-20T20:51:15.704Z,25.58
2018-07-20T20:53:43.808Z,25.51
2018-07-20T20:56:11.830Z,25.46
2018-07-20T20:58:40.079Z,25.39
2018-07-20T21:01:08.444Z,25.32
2018-07-20T21:03:36.621Z,25.25
2018-07-20T21:06:04.694Z,25.18
2018-07-20T21:08:32.747Z,25.13
2018-07-20T21:11:00.811Z,25.09
2018-07-20T21:13:28.956Z,25.05
2018-07-20T21:15:57.141Z,25.01
2018-07-20T21:18:25.405Z,24.98
2018-07-20T21:20:54.171Z,24.95
2018-07-20T21:23:22.314Z,24.94
2018-07-20T21:25:50.397Z,24.92
2018-07-20T21:28:18.472Z,24.89
2018-07-20T21:30:46.823Z,24.87
2018-07-20T21:33:14.866Z,24.84
2018-07-20T21:35:42.972Z,24.79
2018-07-20T21:38:11.851Z,24.73
2018-07-20T21:40:40.309Z,24.68
2018-07-20T21:43:09.400Z,24.63
2018-07-20T21:45:37.459Z,24.59
2018-07-20T21:48:05.541Z,24.54
2018-07-20T21:50:33.647Z,24.50
2018-07-20T21:53:01.825Z,24.45
2018-07-20T21:55:29.912Z,24.39
2018-07-20T21:57:58.004Z,24.31
2018-07-20T22:00:26.048Z,24.26
2018-07-20T22:02:54.124Z,24.23
2018-07-20T22:05:22.183Z,24.17
2018-07-20T22:07:50.344Z,24.13
2018-07-20T22:10:18.400Z,24.07
2018-07-20T22:12:46.441Z,24.07
2018-07-20T22:15:14.491Z,24.03
2018-07-20T22:17:42.543Z,23.97
2018-07-20T22:20:10.691Z,23.89
2018-07-20T22:22:38.772Z,23.83
2018-07-20T22:25:07.397Z,23.78
2018-07-20T22:27:36.115Z,23.73
2018-07-20T22:30:05.412Z,23.68
2018-07-20T22:32:33.532Z,23.65
2018-07-20T22:35:02.978Z,23.60
2018-07-20T22:37:31.059Z,23.55
2018-07-20T22:39:59.095Z,23.51
2018-07-20T22:42:27.143Z,23.46
2018-07-20T22:44:55.224Z,23.44
2018-07-20T22:47:23.301Z,23.41
2018-07-20T22:49:51.345Z,23.35
2018-07-20T22:52:19.411Z,23.31
2018-07-20T22:54:47.511Z,23.26
2018-07-20T22:57:15.580Z,23.21
2018-07-20T22:59:43.603Z,23.11
2018-07-20T23:02:11.668Z,23.07
2018-07-20T23:04:39.683Z,23.01
2018-07-20T23:07:07.724Z,22.94
2018-07-20T23:09:35.784Z,22.90
2018-07-20T23:12:03.880Z,22.86
2018-07-20T23:14:31.920Z,22.83
2018-07-20T23:16:59.962Z,22.80
2018-07-20T23:19:28.001Z,22.78
2018-07-20T23:21:56.032Z,22.75
2018-07-20T23:24:24.089Z,22.70
2018-07-20T23:26:52.143Z,22.66
2018-07-20T23:29:20.372Z,22.63
2018-07-20T23:31:48.371Z,22.60
2018-07-20T23:34:16.408Z,22.51
2018-07-20T23:36:44.466Z,22.40
2018-07-20T23:39:12.881Z,22.33
2018-07-20T23:41:41.044Z,22.28
2018-07-20T23:44:10.030Z,22.22
2018-07-20T23:46:39.030Z,22.16
2018-07-20T23:49:07.818Z,22.11
2018-07-20T23:51:36.281Z,22.07
2018-07-20T23:54:05.522Z,22.03
2018-07-20T23:56:33.647Z,22.00
2018-07-20T23:59:01.693Z,21.98
